createdAt,value
2023-04-24T00:01:40.457Z,1.75
2023-04-24T00:04:12.097Z,1.38
2023-04-24T00:06:43.724Z,1.70
2023-04-24T00:09:13.257Z,1.80
2023-04-24T00:11:41.451Z,2.10
2023-04-24T00:14:09.548Z,1.80
2023-04-24T00:16:37.843Z,2.00
2023-04-24T00:19:06.842Z,2.20
2023-04-24T00:21:35.061Z,1.97
2023-04-24T00:24:03.262Z,2.10
2023-04-24T00:26:32.706Z,2.07
2023-04-24T00:29:00.827Z,2.07
2023-04-24T00:31:28.991Z,2.00
2023-04-24T00:33:57.145Z,2.28
2023-04-24T00:36:26.014Z,2.25
2023-04-24T00:38:54.165Z,2.07
2023-04-24T00:41:22.918Z,2.00
2023-04-24T00:43:52.559Z,2.10
2023-04-24T00:46:21.422Z,2.15
2023-04-24T00:48:49.706Z,1.70
2023-04-24T00:51:17.777Z,2.00
2023-04-24T00:53:45.923Z,2.30
2023-04-24T00:56:14.243Z,2.20
2023-04-24T00:58:42.738Z,1.90
2023-04-24T01:01:12.769Z,1.70
2023-04-24T01:03:42.896Z,1.97
2023-04-24T01:06:12.678Z,1.70
2023-04-24T01:08:42.655Z,1.90
2023-04-24T01:11:10.783Z,1.80
2023-04-24T01:13:38.932Z,1.70
2023-04-24T01:16:07.448Z,1.80
2023-04-24T01:18:36.937Z,1.53
2023-04-24T01:21:07.604Z,1.43
2023-04-24T01:23:37.420Z,1.60
2023-04-24T01:26:05.920Z,1.70
2023-04-24T01:28:34.180Z,1.47
2023-04-24T01:31:02.400Z,1.30
2023-04-24T01:33:30.882Z,1.27
2023-04-24T01:35:59.702Z,1.37
2023-04-24T01:38:27.849Z,1.10
2023-04-24T01:40:57.368Z,1.20
2023-04-24T01:43:26.268Z,1.40
2023-04-24T01:45:54.373Z,1.33
2023-04-24T01:48:22.732Z,1.07
2023-04-24T01:50:50.936Z,1.10
2023-04-24T01:53:19.283Z,1.20
2023-04-24T01:55:47.495Z,1.10
2023-04-24T01:58:17.225Z,1.10
2023-04-24T02:00:45.369Z,1.10
2023-04-24T02:03:13.611Z,1.10
2023-04-24T02:05:41.852Z,1.10
2023-04-24T02:08:09.941Z,1.00
2023-04-24T02:10:38.033Z,1.10
2023-04-24T02:13:06.433Z,1.10
2023-04-24T02:15:36.910Z,1.10
2023-04-24T02:18:05.313Z,1.30
2023-04-24T02:20:34.997Z,1.20
2023-04-24T02:23:03.317Z,1.40
2023-04-24T02:25:31.565Z,1.30
2023-04-24T02:27:59.657Z,1.10
2023-04-24T02:30:27.823Z,1.30
2023-04-24T02:32:57.437Z,1.27
2023-04-24T02:35:25.645Z,1.40
2023-04-24T02:37:53.802Z,1.20
2023-04-24T02:40:22.040Z,1.47
2023-04-24T02:42:50.313Z,1.40
2023-04-24T02:45:18.590Z,1.40
2023-04-24T02:47:47.005Z,1.30
2023-04-24T02:50:16.473Z,1.40
2023-04-24T02:52:44.838Z,1.60
2023-04-24T02:55:13.297Z,1.30
2023-04-24T02:57:41.383Z,1.43
2023-04-24T03:00:11.198Z,1.30
2023-04-24T03:02:39.540Z,1.40
2023-04-24T03:05:08.648Z,1.27
2023-04-24T03:07:38.114Z,1.47
2023-04-24T03:10:07.976Z,1.50
2023-04-24T03:12:36.251Z,1.67
2023-04-24T03:15:05.251Z,1.50
2023-04-24T03:17:33.636Z,1.27
2023-04-24T03:20:01.862Z,1.53
2023-04-24T03:22:29.939Z,1.43
2023-04-24T03:24:59.439Z,1.40
2023-04-24T03:27:27.538Z,1.43
2023-04-24T03:29:56.525Z,1.40
2023-04-24T03:32:25.227Z,1.30
2023-04-24T03:34:55.012Z,1.40
2023-04-24T03:37:23.133Z,1.23
2023-04-24T03:39:51.338Z,1.30
2023-04-24T03:42:20.818Z,1.50
2023-04-24T03:44:49.254Z,1.30
2023-04-24T03:47:17.347Z,1.50
2023-04-24T03:49:45.485Z,1.30
2023-04-24T03:52:13.648Z,1.60
2023-04-24T03:54:41.738Z,1.40
2023-04-24T03:57:09.854Z,1.63
2023-04-24T03:59:39.325Z,1.50
2023-04-24T04:02:08.120Z,1.80
2023-04-24T04:04:36.601Z,1.40
2023-04-24T04:07:06.252Z,1.60
2023-04-24T04:09:34.851Z,1.80
2023-04-24T04:12:02.960Z,1.50
2023-04-24T04:14:31.071Z,2.10
2023-04-24T04:17:00.606Z,1.80
2023-04-24T04:19:28.693Z,2.03
2023-04-24T04:21:57.232Z,1.70
2023-04-24T04:24:25.598Z,1.80
2023-04-24T04:26:57.548Z,1.60
2023-04-24T04:29:26.933Z,1.93
2023-04-24T04:31:56.119Z,1.70
2023-04-24T04:34:25.833Z,1.67
2023-04-24T04:36:53.954Z,1.80
2023-04-24T04:39:22.271Z,1.60
2023-04-24T04:41:51.307Z,1.60
2023-04-24T04:44:19.402Z,1.70
2023-04-24T04:46:48.291Z,1.90
2023-04-24T04:49:17.621Z,1.80
2023-04-24T04:51:47.973Z,1.80
2023-04-24T04:54:16.745Z,1.80
2023-04-24T04:56:44.892Z,1.50
2023-04-24T04:59:13.287Z,1.30
2023-04-24T05:01:41.716Z,1.83
2023-04-24T05:04:10.077Z,1.70
2023-04-24T05:06:38.356Z,1.33
2023-04-24T05:09:08.493Z,1.50
2023-04-24T05:11:36.585Z,1.52
2023-04-24T05:14:04.689Z,1.40
2023-04-24T05:16:32.944Z,1.30
2023-04-24T05:19:01.079Z,2.00
2023-04-24T05:21:29.174Z,1.73
2023-04-24T05:23:57.269Z,1.60
2023-04-24T05:26:26.813Z,1.23
2023-04-24T05:28:54.888Z,1.50
2023-04-24T05:31:23.202Z,1.43
2023-04-24T05:33:51.353Z,1.60
2023-04-24T05:36:19.578Z,1.90
2023-04-24T05:38:47.670Z,1.83
2023-04-24T05:41:15.980Z,1.70
2023-04-24T05:43:45.549Z,1.47
2023-04-24T05:46:14.511Z,2.03
2023-04-24T05:48:42.634Z,1.33
2023-04-24T05:51:12.107Z,1.70
2023-04-24T05:53:40.305Z,1.80
2023-04-24T05:56:08.560Z,1.60
2023-04-24T05:58:36.678Z,1.70
2023-04-24T06:01:06.276Z,1.70
2023-04-24T06:03:34.794Z,1.50
2023-04-24T06:06:03.219Z,1.50
2023-04-24T06:08:31.359Z,1.88
2023-04-24T06:10:59.490Z,1.85
2023-04-24T06:13:27.659Z,1.30
2023-04-24T06:15:56.177Z,1.45
2023-04-24T06:18:25.621Z,1.35
2023-04-24T06:20:53.800Z,1.25
2023-04-24T06:23:21.943Z,1.52
2023-04-24T06:25:50.074Z,1.43
2023-04-24T06:28:18.223Z,1.48
2023-04-24T06:30:46.348Z,1.13
2023-04-24T06:35:48.618Z,1.20
2023-04-24T06:38:17.579Z,1.50
2023-04-24T06:40:45.903Z,1.35
2023-04-24T06:43:14.028Z,1.35
2023-04-24T06:45:42.174Z,1.60
2023-04-24T06:48:10.410Z,1.42
2023-04-24T06:50:38.637Z,1.67
2023-04-24T06:53:08.071Z,1.50
2023-04-24T06:55:37.916Z,1.70
2023-04-24T06:58:07.041Z,1.60
2023-04-24T07:00:35.191Z,1.65
2023-04-24T07:03:03.570Z,1.30
2023-04-24T07:05:31.793Z,1.38
2023-04-24T07:08:00.237Z,1.58
2023-04-24T07:10:30.221Z,1.48
2023-04-24T07:12:58.666Z,1.80
2023-04-24T07:15:27.346Z,1.70
2023-04-24T07:17:55.549Z,1.35
2023-04-24T07:20:23.892Z,1.48
2023-04-24T07:22:52.726Z,1.50
2023-04-24T07:25:21.254Z,1.58
2023-04-24T07:27:51.130Z,1.33
2023-04-24T07:30:19.253Z,1.60
2023-04-24T07:32:47.396Z,1.42
2023-04-24T07:35:15.537Z,1.35
2023-04-24T07:37:46.652Z,1.17
2023-04-24T07:40:14.922Z,1.40
2023-04-24T07:42:44.757Z,1.50
2023-04-24T07:45:14.220Z,1.50
2023-04-24T07:47:44.855Z,1.30
2023-04-24T07:50:13.705Z,1.23
2023-04-24T07:52:41.784Z,1.23
2023-04-24T07:55:10.053Z,1.25
2023-04-24T07:57:38.733Z,1.88
2023-04-24T08:00:08.885Z,2.85
2023-04-24T08:02:38.430Z,1.10
2023-04-24T08:05:07.879Z,1.23
2023-04-24T08:07:37.000Z,2.30
2023-04-24T08:10:06.206Z,1.00
2023-04-24T08:12:34.318Z,1.00
2023-04-24T08:15:02.427Z,1.10
2023-04-24T08:17:32.625Z,1.00
2023-04-24T08:20:03.353Z,1.00
2023-04-24T08:22:31.551Z,1.15
2023-04-24T08:25:02.805Z,0.80
2023-04-24T08:27:30.925Z,1.20
2023-04-24T08:29:59.935Z,1.25
2023-04-24T08:32:29.827Z,1.20
2023-04-24T08:34:58.498Z,1.00
2023-04-24T08:37:29.616Z,0.75
2023-04-24T08:39:57.970Z,0.90
2023-04-24T08:42:26.709Z,1.00
2023-04-24T08:44:54.932Z,1.05
2023-04-24T08:47:25.784Z,0.82
2023-04-24T08:49:54.744Z,0.52
2023-04-24T08:52:23.693Z,0.70
2023-04-24T08:54:55.724Z,0.65
2023-04-24T08:57:24.810Z,0.70
2023-04-24T08:59:53.935Z,0.80
2023-04-24T09:02:23.485Z,0.80
2023-04-24T09:04:53.150Z,0.80
2023-04-24T09:07:24.273Z,0.70
2023-04-24T09:09:55.140Z,0.88
2023-04-24T09:12:23.531Z,0.90
2023-04-24T09:14:53.311Z,0.70
2023-04-24T09:17:23.770Z,0.70
2023-04-24T09:19:52.424Z,0.90
2023-04-24T09:22:20.781Z,0.80
2023-04-24T09:24:50.316Z,0.75
2023-04-24T09:27:20.420Z,0.73
2023-04-24T09:29:56.848Z,0.80
2023-04-24T09:32:27.176Z,0.80
2023-04-24T09:35:13.392Z,0.95
2023-04-24T09:37:43.593Z,1.00
2023-04-24T09:40:18.359Z,1.00
2023-04-24T09:42:53.186Z,1.00
2023-04-24T09:45:22.436Z,0.95
2023-04-24T09:47:55.299Z,0.88
2023-04-24T09:50:23.839Z,0.80
2023-04-24T09:53:01.008Z,0.93
2023-04-24T09:55:29.714Z,0.98
2023-04-24T09:58:01.194Z,1.10
2023-04-24T10:00:32.109Z,0.80
2023-04-24T10:03:02.293Z,0.90
2023-04-24T10:05:32.491Z,0.98
2023-04-24T10:08:07.285Z,0.90
2023-04-24T10:10:41.045Z,0.90
2023-04-24T10:13:12.615Z,1.05
2023-04-24T10:15:42.931Z,0.82
2023-04-24T10:18:12.325Z,1.00
2023-04-24T10:20:42.242Z,1.00
2023-04-24T10:23:10.531Z,0.88
2023-04-24T10:25:38.974Z,0.93
2023-04-24T10:28:09.762Z,0.85
2023-04-24T10:30:45.018Z,0.80
2023-04-24T10:33:14.296Z,1.15
2023-04-24T10:35:52.820Z,0.88
2023-04-24T10:38:28.046Z,1.10
2023-04-24T10:41:10.295Z,1.42
2023-04-24T10:43:38.590Z,1.13
2023-04-24T10:46:09.538Z,1.27
2023-04-24T10:48:43.584Z,0.90
2023-04-24T10:51:15.866Z,0.82
2023-04-24T10:53:43.897Z,1.00
2023-04-24T10:56:13.151Z,0.90
2023-04-24T10:58:45.647Z,1.10
2023-04-24T11:01:28.966Z,1.10
2023-04-24T11:03:59.481Z,1.08
2023-04-24T11:06:37.007Z,0.90
2023-04-24T11:09:08.213Z,0.82
2023-04-24T11:11:38.412Z,0.80
2023-04-24T11:14:11.546Z,1.00
2023-04-24T11:16:53.909Z,1.17
2023-04-24T11:19:25.849Z,1.13
2023-04-24T11:22:01.379Z,1.30
2023-04-24T11:24:39.183Z,1.20
2023-04-24T11:27:18.008Z,1.50
2023-04-24T11:29:51.074Z,1.40
2023-04-24T11:32:29.201Z,1.20
2023-04-24T11:34:59.483Z,1.10
2023-04-24T11:37:31.505Z,1.40
2023-04-24T11:40:01.540Z,1.25
2023-04-24T11:42:35.286Z,1.20
2023-04-24T11:45:03.682Z,1.13
2023-04-24T11:47:34.965Z,1.17
2023-04-24T11:50:05.499Z,1.02
2023-04-24T11:52:35.529Z,1.13
2023-04-24T11:55:04.642Z,1.20
2023-04-24T11:57:35.285Z,0.80
2023-04-24T12:00:05.620Z,1.00
2023-04-24T12:02:36.929Z,1.10
2023-04-24T12:05:07.737Z,1.13
2023-04-24T12:07:44.652Z,1.40
2023-04-24T12:10:13.195Z,0.90
2023-04-24T12:12:41.380Z,1.10
2023-04-24T12:15:11.352Z,1.00
2023-04-24T12:17:44.303Z,1.02
2023-04-24T12:20:14.187Z,1.30
2023-04-24T12:22:51.371Z,1.20
2023-04-24T12:25:21.666Z,1.25
2023-04-24T12:27:56.848Z,1.40
2023-04-24T12:30:31.443Z,1.30
2023-04-24T12:33:04.489Z,1.20
2023-04-24T12:35:36.507Z,1.50
2023-04-24T12:38:08.989Z,1.45
2023-04-24T12:40:37.214Z,1.63
2023-04-24T12:43:16.595Z,1.17
2023-04-24T12:45:45.758Z,1.38
2023-04-24T12:48:16.013Z,1.20
2023-04-24T12:50:47.056Z,1.27
2023-04-24T12:53:16.099Z,1.58
2023-04-24T12:55:45.474Z,1.27
2023-04-24T12:58:13.541Z,1.25
2023-04-24T13:00:44.257Z,1.67
2023-04-24T13:03:14.050Z,1.30
2023-04-24T13:05:42.988Z,1.58
2023-04-24T13:08:11.058Z,1.30
2023-04-24T13:10:39.186Z,1.42
2023-04-24T13:13:07.241Z,1.13
2023-04-24T13:15:35.330Z,1.20
2023-04-24T13:18:03.580Z,1.40
2023-04-24T13:20:33.080Z,1.40
2023-04-24T13:23:01.159Z,1.20
2023-04-24T13:25:29.316Z,1.30
2023-04-24T13:27:57.350Z,1.27
2023-04-24T13:30:25.441Z,1.98
2023-04-24T13:32:53.566Z,1.45
2023-04-24T13:35:21.665Z,1.40
2023-04-24T13:37:51.120Z,1.30
2023-04-24T13:40:19.372Z,1.45
2023-04-24T13:42:47.514Z,1.60
2023-04-24T13:45:24.760Z,1.40
2023-04-24T13:47:54.570Z,1.30
2023-04-24T13:50:23.157Z,1.25
2023-04-24T13:52:52.600Z,1.20
2023-04-24T13:55:20.955Z,1.10
2023-04-24T13:57:49.035Z,1.42
2023-04-24T14:00:18.817Z,1.30
2023-04-24T14:02:47.015Z,1.30
2023-04-24T14:05:16.105Z,1.30
2023-04-24T14:07:44.200Z,1.20
2023-04-24T14:10:13.770Z,1.20
2023-04-24T14:12:42.172Z,1.10
2023-04-24T14:15:11.366Z,0.90
2023-04-24T14:17:39.451Z,0.90
2023-04-24T14:20:09.917Z,1.00
2023-04-24T14:22:37.986Z,1.00
2023-04-24T14:25:07.450Z,1.33
2023-04-24T14:27:36.976Z,1.20
2023-04-24T14:30:06.717Z,1.20
2023-04-24T14:32:34.826Z,1.30
2023-04-24T14:35:03.005Z,1.42
2023-04-24T14:37:31.752Z,0.90
2023-04-24T14:40:11.899Z,0.90
2023-04-24T14:42:49.557Z,0.70
2023-04-24T14:45:17.704Z,0.65
2023-04-24T14:47:46.338Z,0.52
2023-04-24T14:50:14.437Z,0.70
2023-04-24T14:52:42.535Z,0.70
2023-04-24T14:55:12.568Z,0.60
2023-04-24T14:57:41.127Z,0.65
2023-04-24T15:00:12.410Z,0.70
2023-04-24T15:02:42.910Z,0.85
2023-04-24T15:05:11.636Z,0.65
2023-04-24T15:07:40.200Z,0.60
2023-04-24T15:10:10.378Z,0.50
2023-04-24T15:12:38.579Z,0.80
2023-04-24T15:15:08.784Z,0.63
2023-04-24T15:17:38.289Z,0.50
2023-04-24T15:20:08.512Z,0.40
2023-04-24T15:22:37.256Z,0.50
2023-04-24T15:25:06.788Z,0.50
2023-04-24T15:27:43.354Z,0.60
2023-04-24T15:30:12.931Z,0.60
2023-04-24T15:32:43.116Z,0.60
2023-04-24T15:35:12.028Z,0.60
2023-04-24T15:37:41.134Z,0.60
2023-04-24T15:40:12.142Z,0.52
2023-04-24T15:42:40.908Z,0.70
2023-04-24T15:45:10.831Z,0.50
2023-04-24T15:47:39.150Z,0.52
2023-04-24T15:50:14.188Z,0.43
2023-04-24T15:52:43.004Z,0.40
2023-04-24T15:55:11.899Z,0.40
2023-04-24T15:57:40.272Z,0.40
2023-04-24T16:00:10.979Z,0.52
2023-04-24T16:02:39.442Z,0.50
2023-04-24T16:05:09.748Z,0.30
2023-04-24T16:07:40.101Z,0.30
2023-04-24T16:10:09.237Z,0.40
2023-04-24T16:12:37.444Z,0.50
2023-04-24T16:15:07.034Z,0.52
2023-04-24T16:17:35.119Z,0.55
2023-04-24T16:20:03.480Z,0.60
2023-04-24T16:22:32.878Z,0.70
2023-04-24T16:25:00.962Z,0.50
2023-04-24T16:27:29.270Z,0.60
2023-04-24T16:29:57.469Z,0.88
2023-04-24T16:32:25.733Z,0.70
2023-04-24T16:34:54.033Z,0.50
2023-04-24T16:37:22.235Z,0.63
2023-04-24T16:39:51.786Z,0.50
2023-04-24T16:42:19.815Z,0.60
2023-04-24T16:44:48.697Z,0.57
2023-04-24T16:47:17.264Z,0.60
2023-04-24T16:49:47.580Z,0.70
2023-04-24T16:52:16.273Z,0.50
2023-04-24T16:54:44.309Z,0.70
2023-04-24T16:57:13.834Z,0.82
2023-04-24T16:59:42.005Z,0.75
2023-04-24T17:02:10.835Z,0.80
2023-04-24T17:04:39.076Z,0.70
2023-04-24T17:07:07.190Z,0.60
2023-04-24T17:09:35.338Z,0.63
2023-04-24T17:12:03.554Z,0.70
2023-04-24T17:14:32.989Z,0.80
2023-04-24T17:17:01.094Z,0.68
2023-04-24T17:19:29.509Z,0.67
2023-04-24T17:21:58.016Z,0.70
2023-04-24T17:24:26.212Z,0.63
2023-04-24T17:26:56.588Z,0.80
2023-04-24T17:29:29.736Z,0.70
2023-04-24T17:31:59.163Z,0.60
2023-04-24T17:34:27.306Z,0.80
2023-04-24T17:36:55.354Z,0.73
2023-04-24T17:39:23.492Z,0.70
2023-04-24T17:41:51.713Z,0.87
2023-04-24T17:44:19.739Z,0.70
2023-04-24T17:46:47.770Z,0.70
2023-04-24T17:49:17.194Z,0.80
2023-04-24T17:51:45.400Z,1.00
2023-04-24T17:54:13.480Z,0.70
2023-04-24T17:56:41.672Z,0.80
2023-04-24T17:59:09.751Z,0.70
2023-04-24T18:01:37.869Z,0.90
2023-04-24T18:04:06.099Z,0.90
2023-04-24T18:06:35.701Z,1.03
2023-04-24T18:09:04.168Z,0.90
2023-04-24T18:11:32.443Z,0.70
2023-04-24T18:14:00.692Z,0.73
2023-04-24T18:16:28.966Z,0.83
2023-04-24T18:18:57.163Z,1.00
2023-04-24T18:21:25.512Z,1.00
2023-04-24T18:23:55.153Z,1.00
2023-04-24T18:26:23.278Z,1.40
2023-04-24T18:28:51.446Z,0.90
2023-04-24T18:31:19.772Z,1.20
2023-04-24T18:33:47.929Z,1.27
2023-04-24T18:36:15.981Z,1.10
2023-04-24T18:38:44.275Z,1.20
2023-04-24T18:41:14.308Z,1.20
2023-04-24T18:43:42.417Z,1.33
2023-04-24T18:46:10.481Z,1.20
2023-04-24T18:48:38.621Z,1.40
2023-04-24T18:51:06.692Z,1.13
2023-04-24T18:53:34.754Z,1.30
2023-04-24T18:56:02.927Z,1.33
2023-04-24T18:58:32.358Z,1.30
2023-04-24T19:01:00.638Z,1.47
2023-04-24T19:03:29.845Z,2.27
2023-04-24T19:05:58.036Z,1.40
2023-04-24T19:08:26.162Z,1.70
2023-04-24T19:10:54.200Z,2.10
2023-04-24T19:13:22.212Z,2.10
2023-04-24T19:15:51.601Z,2.70
2023-04-24T19:18:19.621Z,2.90
2023-04-24T19:20:47.786Z,2.80
2023-04-24T19:23:15.899Z,2.57
2023-04-24T19:25:43.928Z,2.80
2023-04-24T19:28:12.301Z,2.80
2023-04-24T19:30:40.640Z,2.80
2023-04-24T19:33:10.226Z,2.37
2023-04-24T19:35:39.008Z,2.37
2023-04-24T19:38:07.154Z,2.90
2023-04-24T19:40:35.259Z,2.87
2023-04-24T19:43:03.297Z,3.43
2023-04-24T19:45:31.362Z,3.83
2023-04-24T19:47:59.932Z,2.93
2023-04-24T19:50:29.474Z,3.00
2023-04-24T19:52:57.514Z,2.90
2023-04-24T19:55:25.596Z,3.20
2023-04-24T19:57:53.613Z,2.80
2023-04-24T20:00:21.796Z,3.07
2023-04-24T20:02:50.026Z,3.00
2023-04-24T20:05:18.414Z,3.30
2023-04-24T20:07:47.939Z,2.93
2023-04-24T20:10:16.019Z,3.30
2023-04-24T20:12:44.191Z,3.67
2023-04-24T20:15:13.396Z,3.57
2023-04-24T20:17:41.712Z,3.43
2023-04-24T20:20:11.476Z,3.50
2023-04-24T20:22:40.267Z,3.07
2023-04-24T20:25:12.952Z,2.93
2023-04-24T20:27:42.005Z,3.60
2023-04-24T20:30:13.152Z,3.23
2023-04-24T20:32:41.903Z,3.20
2023-04-24T20:35:11.873Z,3.37
2023-04-24T20:37:40.410Z,3.53
2023-04-24T20:40:13.577Z,3.20
2023-04-24T20:42:41.800Z,3.57
2023-04-24T20:45:11.999Z,3.10
2023-04-24T20:47:40.125Z,3.50
2023-04-24T20:50:09.726Z,3.40
2023-04-24T20:52:37.792Z,3.30
2023-04-24T20:55:07.380Z,3.33
2023-04-24T20:57:36.900Z,3.20
2023-04-24T21:00:08.609Z,3.57
2023-04-24T21:02:36.825Z,3.40
2023-04-24T21:05:05.453Z,3.57
2023-04-24T21:07:34.054Z,3.30
2023-04-24T21:10:02.340Z,3.10
2023-04-24T21:12:31.580Z,3.37
2023-04-24T21:15:01.013Z,3.70
2023-04-24T21:17:29.177Z,3.40
2023-04-24T21:19:57.311Z,3.30
2023-04-24T21:22:25.517Z,3.90
2023-04-24T21:24:53.539Z,3.70
2023-04-24T21:27:21.652Z,3.60
2023-04-24T21:29:49.752Z,3.70
2023-04-24T21:32:19.530Z,4.03
2023-04-24T21:34:47.862Z,3.57
2023-04-24T21:37:16.287Z,3.90
2023-04-24T21:39:44.373Z,3.57
2023-04-24T21:42:12.604Z,3.70
2023-04-24T21:44:40.730Z,3.33
2023-04-24T21:47:08.944Z,3.13
2023-04-24T21:49:38.399Z,3.57
2023-04-24T21:52:06.465Z,3.70
2023-04-24T21:54:35.704Z,2.97
2023-04-24T21:57:03.856Z,3.10
2023-04-24T21:59:32.569Z,3.17
2023-04-24T22:02:00.774Z,3.40
2023-04-24T22:04:29.151Z,3.13
2023-04-24T22:06:58.794Z,3.10
2023-04-24T22:09:26.937Z,3.20
2023-04-24T22:11:55.916Z,3.27
2023-04-24T22:14:24.070Z,3.40
2023-04-24T22:16:52.173Z,3.17
2023-04-24T22:19:20.260Z,3.10
2023-04-24T22:21:48.479Z,3.50
2023-04-24T22:24:20.047Z,3.40
2023-04-24T22:26:48.270Z,3.20
2023-04-24T22:29:16.405Z,3.80
2023-04-24T22:31:44.581Z,3.07
2023-04-24T22:34:12.773Z,3.20
2023-04-24T22:36:40.912Z,3.20
2023-04-24T22:39:10.497Z,3.57
2023-04-24T22:41:39.987Z,3.70
2023-04-24T22:44:08.346Z,3.30
2023-04-24T22:46:36.476Z,3.60
2023-04-24T22:49:05.031Z,3.37
2023-04-24T22:51:34.196Z,3.20
2023-04-24T22:54:04.207Z,3.40
2023-04-24T22:56:32.745Z,3.63
2023-04-24T22:59:02.235Z,3.20
2023-04-24T23:01:30.587Z,3.50
2023-04-24T23:03:58.890Z,3.63
2023-04-24T23:06:28.025Z,3.67
2023-04-24T23:08:56.129Z,4.13
2023-04-24T23:11:24.328Z,4.10
2023-04-24T23:13:52.481Z,4.07
2023-04-24T23:16:22.485Z,4.00
2023-04-24T23:18:50.621Z,4.47
2023-04-24T23:21:18.742Z,3.83
2023-04-24T23:23:47.326Z,4.17
2023-04-24T23:26:15.598Z,4.43
2023-04-24T23:28:43.704Z,4.33
2023-04-24T23:31:11.833Z,4.60
2023-04-24T23:33:41.322Z,4.60
2023-04-24T23:36:11.565Z,4.80
2023-04-24T23:38:49.491Z,4.50
2023-04-24T23:41:18.628Z,4.77
2023-04-24T23:43:46.969Z,4.43
2023-04-24T23:46:15.453Z,4.70
2023-04-24T23:48:45.045Z,4.60
2023-04-24T23:51:13.269Z,4.60
2023-04-24T23:53:41.628Z,4.33
2023-04-24T23:56:09.780Z,4.43
2023-04-24T23:58:37.874Z,4.23
